Old Tappan, New Jersey
Current Conditions -  °F | °C
As of 10:51 AM on Wednesday 22 Oct 2014 (Local Time) from KTEB Reporting Station
Broken Clouds Broken Clouds  
Wind Chill: 13°   Ceiling: 2500
Heat Index: 13°   Visibility: 10mi
Dew Point: 10°   Wind: 12mph
Humidity: 83%   Direction: 10°N
Pressure: 29.92"   Gusts: 17mph
Location:  41.0025°N, 74.0303°W
Report Text: KTEB 221451Z 01010G15KT 10SM FEW019 BKN025 13/10 A2992 RMK AO2 RAB1359E34 SLP131 P0000 60003 T01280100 $
Loading
Personal Weather Stations






























Interactive Weather Map
Tropical Storm Tracking
New forecast layout! Learn more

10-Day Weather Forecast

Advertisements
Track Severe Weather on mobile